Time;durP1;ratioP1;P1;durP2;ratioP2;P2;SDS_P1;SDS_P2;PMS_P1;PMS_P2;Temp;Humidity;BMP_temperature;BMP_pressure;BME280_temperature;BME280_humidity;BME280_pressure;Samples;Min_cycle;Max_cycle;Signal;HPM_P1;HPM_P2
2022/04/20 00:01:57;;;;;;;6.40;2.50;;;;;;;9.84;42.09;98843.84;5170101;28;20120;-85
2022/04/20 00:04:48;;;;;;;6.03;2.42;;;;;;;9.51;41.60;98826.63;5170286;28;20079;-85
2022/04/20 00:07:38;;;;;;;6.40;2.80;;;;;;;9.72;41.85;98840.50;5173264;28;20053;-85
2022/04/20 00:10:30;;;;;;;5.18;2.50;;;;;;;9.86;42.22;98848.00;5176716;28;20052;-85
2022/04/20 00:13:20;;;;;;;6.13;2.65;;;;;;;9.94;41.68;98835.88;5181647;28;20092;-85
2022/04/20 00:16:10;;;;;;;4.15;2.40;;;;;;;9.67;41.91;98829.53;5180992;28;20523;-85
2022/04/20 00:19:00;;;;;;;4.13;2.70;;;;;;;9.64;42.47;98822.69;5198233;28;20065;-86
2022/04/20 00:21:50;;;;;;;10.13;2.90;;;;;;;9.67;42.86;98836.63;5159553;28;20128;-85
2022/04/20 00:24:41;;;;;;;6.22;2.85;;;;;;;9.52;42.27;98786.78;5169787;28;20045;-85
2022/04/20 00:27:36;;;;;;;7.30;3.03;;;;;;;9.62;42.31;98837.06;5169899;28;20054;-86
2022/04/20 00:30:26;;;;;;;8.82;2.88;;;;;;;9.40;42.94;98803.78;5171924;28;20068;-87
2022/04/20 00:33:17;;;;;;;14.38;3.17;;;;;;;9.53;43.53;98822.84;5186769;28;20132;-85
2022/04/20 00:36:09;;;;;;;5.20;3.08;;;;;;;9.52;43.17;98825.66;5183493;28;20049;-85
2022/04/20 00:38:59;;;;;;;6.65;3.20;;;;;;;9.44;43.59;98834.28;5170933;28;20145;-85
2022/04/20 00:41:54;;;;;;;5.03;3.10;;;;;;;9.10;43.82;98791.53;5184425;28;20085;-85
2022/04/20 00:44:45;;;;;;;4.78;2.97;;;;;;;9.20;45.23;98834.69;5186303;28;20104;-85
2022/04/20 00:47:36;;;;;;;5.43;3.15;;;;;;;9.07;45.12;98837.63;5187801;28;20542;-87
2022/04/20 00:50:27;;;;;;;4.75;2.80;;;;;;;8.60;45.98;98794.28;5171536;28;20495;-86
2022/04/20 00:53:18;;;;;;;6.72;3.08;;;;;;;8.57;46.07;98820.97;5171291;28;20113;-86
2022/04/20 00:56:09;;;;;;;5.53;3.15;;;;;;;8.56;47.47;98830.72;5178493;28;20049;-86
2022/04/20 00:59:01;;;;;;;5.68;2.92;;;;;;;8.35;47.34;98825.47;5177691;28;20061;-85
2022/04/20 01:01:52;;;;;;;7.85;3.60;;;;;;;8.19;47.00;98822.50;5151220;28;20437;-85
2022/04/20 01:04:45;;;;;;;7.53;4.10;;;;;;;8.12;48.13;98831.94;5151031;28;20086;-85
2022/04/20 01:07:41;;;;;;;6.93;3.70;;;;;;;8.15;47.48;98840.41;5141878;28;20045;-86
2022/04/20 01:11:00;;;;;;;7.82;3.60;;;;;;;7.77;48.66;98798.81;5169112;28;20420;-85
2022/04/20 01:13:58;;;;;;;6.90;3.28;;;;;;;7.87;48.67;98836.66;5171994;28;20507;-85
2022/04/20 01:17:07;;;;;;;5.97;3.30;;;;;;;7.67;48.96;98834.88;5187120;28;20058;-85
2022/04/20 01:20:30;;;;;;;5.13;3.55;;;;;;;7.71;49.61;98845.03;5175884;28;20565;-86
2022/04/20 01:23:35;;;;;;;5.07;3.72;;;;;;;7.73;49.70;98827.28;5166136;28;20135;-87
2022/04/20 01:26:44;;;;;;;11.73;4.60;;;;;;;7.99;49.13;98830.34;5202061;28;20080;-86
2022/04/20 01:29:46;;;;;;;5.82;3.72;;;;;;;7.71;50.04;98850.31;5172126;28;20053;-85
2022/04/20 01:32:57;;;;;;;9.82;3.97;;;;;;;7.70;49.46;98845.16;5190186;28;20053;-85
2022/04/20 01:35:58;;;;;;;8.65;3.92;;;;;;;7.51;49.69;98822.94;5190187;28;20075;-85
2022/04/20 01:38:49;;;;;;;9.75;4.55;;;;;;;7.60;50.13;98842.47;5190469;28;20482;-85
2022/04/20 01:41:40;;;;;;;8.10;4.63;;;;;;;7.18;50.83;98805.50;5175084;28;20195;-85
2022/04/20 01:44:30;;;;;;;8.27;4.15;;;;;;;7.17;51.76;98829.38;5170275;28;20163;-86
2022/04/20 01:47:47;;;;;;;6.25;3.83;;;;;;;7.09;51.63;98834.44;5158706;28;20713;-85
2022/04/20 01:54:21;;;;;;;10.13;3.88;;;;;;;7.37;50.90;98833.00;5153637;28;20058;-86
2022/04/20 01:57:30;;;;;;;7.82;4.00;;;;;;;7.21;50.93;98814.97;5172039;28;20065;-85
2022/04/20 02:00:26;;;;;;;7.00;3.85;;;;;;;6.84;51.55;98804.81;5170342;28;20100;-86
2022/04/20 02:03:31;;;;;;;7.28;4.15;;;;;;;6.93;52.47;98819.03;5169845;28;20064;-86
2022/04/20 02:06:31;;;;;;;7.28;4.15;;;;;;;7.26;51.21;98829.44;5169751;28;20052;-84
2022/04/20 02:09:25;;;;;;;7.40;4.55;;;;;;;7.05;51.90;98821.50;5177048;28;20128;-86
2022/04/20 02:12:21;;;;;;;10.85;4.25;;;;;;;7.04;51.49;98819.81;5190904;28;20619;-87
2022/04/20 02:15:38;;;;;;;7.65;4.30;;;;;;;6.97;51.92;98823.09;5153635;28;20092;-85
2022/04/20 02:18:48;;;;;;;9.52;4.05;;;;;;;6.93;52.19;98824.31;5193726;28;20420;-85
2022/04/20 02:21:57;;;;;;;9.18;4.32;;;;;;;6.71;51.90;98814.66;5185211;28;20060;-85
2022/04/20 02:24:46;;;;;;;7.65;4.20;;;;;;;6.20;52.71;98760.78;5192447;28;20056;-85
2022/04/20 02:27:37;;;;;;;9.82;4.32;;;;;;;6.53;52.42;98824.88;5168048;28;20061;-85
2022/04/20 02:30:28;;;;;;;8.10;4.72;;;;;;;7.03;52.11;98841.03;5172550;28;20085;-85
2022/04/20 02:33:19;;;;;;;12.18;4.15;;;;;;;6.87;51.90;98811.63;5158868;28;20054;-85
2022/04/20 02:36:10;;;;;;;7.22;4.75;;;;;;;6.84;52.66;98844.34;5180541;28;20061;-86
2022/04/20 02:39:04;;;;;;;6.95;4.43;;;;;;;6.56;53.18;98830.75;5189069;28;20053;-85
2022/04/20 02:41:55;;;;;;;;;;;;;;;6.42;53.94;98848.59;5173224;28;20428;-85
2022/04/20 02:44:45;;;;;;;12.45;4.85;;;;;;;6.15;53.14;98810.31;5185572;28;19921;-85
2022/04/20 02:47:35;;;;;;;10.60;4.60;;;;;;;6.21;54.81;98835.31;5178724;28;20061;-84
2022/04/20 02:50:25;;;;;;;6.13;4.65;;;;;;;6.63;54.41;98825.81;5168696;28;20092;-85
2022/04/20 02:53:15;;;;;;;10.40;4.43;;;;;;;6.55;54.08;98818.50;5168884;28;20061;-85
2022/04/20 02:56:05;;;;;;;8.25;4.63;;;;;;;6.30;54.23;98808.28;5169196;28;20046;-85
2022/04/20 02:58:56;;;;;;;14.38;4.72;;;;;;;6.31;54.51;98836.28;5149654;28;20516;-85
2022/04/20 03:01:46;;;;;;;8.63;4.18;;;;;;;6.24;54.68;98821.91;5130762;28;20053;-83
2022/04/20 03:04:39;;;;;;;8.40;4.73;;;;;;;6.05;55.25;98823.34;5176285;28;20193;-85
2022/04/20 03:07:31;;;;;;;8.13;4.95;;;;;;;6.23;55.47;98834.25;5189538;28;20072;-84
2022/04/20 03:10:23;;;;;;;9.57;5.32;;;;;;;6.29;55.05;98815.34;5190779;28;20199;-85
2022/04/20 03:13:13;;;;;;;6.88;4.60;;;;;;;6.27;54.79;98834.84;5136384;28;20081;-86
2022/04/20 03:16:04;;;;;;;6.88;4.88;;;;;;;5.96;55.01;98818.81;5179812;28;20054;-86
2022/04/20 03:18:54;;;;;;;6.00;4.40;;;;;;;6.00;55.34;98838.69;5193503;28;20057;-85
2022/04/20 03:21:51;;;;;;;7.85;4.90;;;;;;;6.02;55.20;98855.16;5140204;28;20065;-85
2022/04/20 03:24:44;;;;;;;7.60;4.32;;;;;;;5.60;55.19;98806.66;5166840;28;20112;-86
2022/04/20 03:27:58;;;;;;;10.90;5.05;;;;;;;5.28;55.54;98759.97;5167636;28;20105;-85
2022/04/20 03:30:49;;;;;;;8.82;5.20;;;;;;;5.79;56.00;98848.16;5184102;28;20064;-85
2022/04/20 03:33:39;;;;;;;9.35;5.57;;;;;;;5.96;56.08;98849.53;5185375;28;20158;-85
2022/04/20 03:36:30;;;;;;;10.40;5.13;;;;;;;5.82;56.20;98830.34;5166700;28;20085;-85
2022/04/20 03:39:20;;;;;;;11.27;5.53;;;;;;;5.91;55.65;98839.34;5153853;28;20065;-86
2022/04/20 03:42:11;;;;;;;10.30;5.18;;;;;;;5.77;56.39;98855.38;5178841;28;20061;-85
2022/04/20 03:45:02;;;;;;;8.82;5.57;;;;;;;5.71;56.90;98847.94;5153184;28;20104;-85
2022/04/20 03:47:52;;;;;;;9.95;5.20;;;;;;;6.08;55.32;98846.81;5147023;28;20053;-86
2022/04/20 03:50:42;;;;;;;10.02;5.30;;;;;;;6.46;54.50;98844.78;5181382;28;20057;-85
2022/04/20 03:53:33;;;;;;;13.57;5.40;;;;;;;6.13;54.98;98822.78;5188667;28;20054;-85
2022/04/20 03:56:25;;;;;;;8.75;5.60;;;;;;;6.43;53.79;98845.84;5192372;28;20112;-85
2022/04/20 03:59:15;;;;;;;7.43;5.07;;;;;;;6.74;53.00;98838.13;5178551;28;20191;-85
2022/04/20 04:02:07;;;;;;;8.90;5.38;;;;;;;6.02;54.59;98843.81;5168167;28;20058;-85
2022/04/20 04:05:05;;;;;;;11.68;5.72;;;;;;;5.89;55.16;98857.03;5160278;28;20057;-84
2022/04/20 04:08:05;;;;;;;6.57;5.05;;;;;;;5.55;54.72;98816.69;5174994;28;20049;-85
2022/04/20 04:10:57;;;;;;;10.05;5.38;;;;;;;5.50;54.39;98835.47;5180166;28;20050;-86
2022/04/20 04:13:48;;;;;;;8.65;4.85;;;;;;;5.31;55.22;98820.22;5171836;28;20138;-85
2022/04/20 04:16:39;;;;;;;9.10;5.85;;;;;;;5.46;56.07;98836.63;5180830;28;20081;-85
2022/04/20 04:19:30;;;;;;;8.95;6.00;;;;;;;5.26;56.93;98838.09;5161954;28;20073;-86
2022/04/20 04:22:21;;;;;;;13.27;6.63;;;;;;;5.45;57.00;98828.84;5159225;28;20070;-86
2022/04/20 04:25:35;;;;;;;10.07;6.70;;;;;;;5.45;56.89;98840.22;5204973;28;20522;-85
2022/04/20 04:28:25;;;;;;;14.43;6.45;;;;;;;5.59;57.32;98876.81;5168997;28;20053;-85
2022/04/20 04:31:17;;;;;;;7.88;5.03;;;;;;;5.22;56.38;98846.34;5185994;28;20679;-87
2022/04/20 04:34:07;;;;;;;10.00;5.90;;;;;;;5.13;56.74;98853.97;5145541;28;20096;-86
2022/04/20 04:36:58;;;;;;;13.32;6.82;;;;;;;5.06;57.61;98851.88;5177146;28;20415;-85
2022/04/20 04:39:48;;;;;;;12.57;6.68;;;;;;;5.09;58.34;98863.00;5173465;28;20064;-84
2022/04/20 04:42:40;;;;;;;13.40;6.93;;;;;;;5.25;58.46;98861.91;5172795;28;20052;-86
2022/04/20 04:48:48;;;;;;;13.27;7.22;;;;;;;5.44;57.44;98872.72;5164697;28;20053;-86
2022/04/20 04:51:39;;;;;;;12.85;6.93;;;;;;;5.13;58.37;98853.97;5187724;28;20049;-85
2022/04/20 04:54:32;;;;;;;12.75;6.93;;;;;;;5.15;58.63;98857.31;5180454;28;20606;-85
2022/04/20 04:57:22;;;;;;;17.67;6.82;;;;;;;5.07;59.23;98849.16;5179389;28;20085;-86
2022/04/20 05:00:13;;;;;;;15.18;6.68;;;;;;;5.16;58.96;98856.34;5190295;28;20049;-86
2022/04/20 05:03:22;;;;;;;11.93;6.53;;;;;;;5.40;58.68;98842.38;5167360;28;20759;-84
2022/04/20 05:06:13;;;;;;;10.32;6.53;;;;;;;5.50;58.17;98847.78;5173575;28;20051;-85
2022/04/20 05:09:24;;;;;;;18.35;6.90;;;;;;;5.79;58.03;98864.78;5194875;28;20052;-84
2022/04/20 05:12:19;;;;;;;12.90;7.50;;;;;;;5.64;58.30;98858.91;5166122;28;20101;-85
2022/04/20 05:15:11;;;;;;;16.08;6.95;;;;;;;5.61;58.77;98846.00;5163350;28;20061;-85
2022/04/20 05:18:01;;;;;;;21.67;6.47;;;;;;;5.69;58.06;98866.44;5176425;28;20117;-85
2022/04/20 05:20:52;;;;;;;16.67;6.75;;;;;;;5.60;58.65;98844.31;5180096;28;20057;-85
2022/04/20 05:23:44;;;;;;;10.23;6.72;;;;;;;5.90;58.28;98861.38;5188183;28;20053;-87
2022/04/20 05:26:34;;;;;;;12.95;6.78;;;;;;;6.04;57.34;98847.16;5180234;28;20519;-84
2022/04/20 05:29:25;;;;;;;10.90;7.25;;;;;;;6.49;57.01;98866.44;5173861;28;20058;-85
2022/04/20 05:32:25;;;;;;;14.10;6.20;;;;;;;6.46;55.88;98837.72;5151571;28;20188;-83
2022/04/20 05:35:20;;;;;;;19.67;6.35;;;;;;;6.47;56.37;98846.44;5168115;28;20556;-83
2022/04/20 05:41:42;;;;;;;9.70;6.60;;;;;;;6.80;55.55;98856.09;5180108;28;20125;-85
2022/04/20 05:44:38;;;;;;;24.85;7.05;;;;;;;7.22;54.48;98870.22;5180588;28;20131;-85
2022/04/20 05:47:29;;;;;;;13.18;6.57;;;;;;;7.09;54.88;98853.72;5177540;28;20412;-85
2022/04/20 05:50:20;;;;;;;21.13;6.75;;;;;;;7.20;54.35;98879.22;5175674;28;20138;-87
2022/04/20 05:53:10;;;;;;;12.60;6.60;;;;;;;7.73;53.38;98874.78;5186063;28;20054;-83
2022/04/20 05:56:02;;;;;;;10.75;6.72;;;;;;;7.45;55.10;98854.28;5176804;28;20053;-83
2022/04/20 05:58:53;;;;;;;12.15;6.10;;;;;;;7.69;53.42;98877.81;5186559;28;20055;-83
2022/04/20 06:01:45;;;;;;;16.15;6.40;;;;;;;7.52;54.01;98866.84;5186651;28;20046;-83
2022/04/20 06:04:40;;;;;;;11.38;6.40;;;;;;;7.72;53.22;98845.88;5191495;28;20145;-83
2022/04/20 06:07:54;;;;;;;10.95;6.80;;;;;;;7.80;52.68;98838.13;5189814;28;20045;-83
2022/04/20 06:10:59;;;;;;;13.45;6.40;;;;;;;8.04;52.74;98872.16;5187576;28;20141;-83
2022/04/20 06:13:49;;;;;;;12.30;6.50;;;;;;;7.94;52.15;98855.44;5172969;28;20119;-83
2022/04/20 06:17:00;;;;;;;9.15;6.22;;;;;;;8.22;52.39;98883.00;5166133;28;20108;-83
2022/04/20 06:20:13;;;;;;;15.10;6.75;;;;;;;8.14;53.37;98880.97;5204368;28;20064;-83
2022/04/20 06:23:23;;;;;;;8.35;6.30;;;;;;;8.62;51.30;98871.63;5181524;28;20067;-83
2022/04/20 06:26:28;;;;;;;13.23;5.93;;;;;;;8.92;51.04;98881.31;5176208;28;20057;-84
2022/04/20 06:29:29;;;;;;;8.38;6.35;;;;;;;8.80;50.73;98858.59;5175336;28;20050;-85
2022/04/20 06:32:37;;;;;;;8.68;5.93;;;;;;;9.20;49.77;98874.38;5152755;28;20806;-85
2022/04/20 06:35:35;;;;;;;7.95;6.07;;;;;;;9.32;49.79;98870.63;5183023;28;20128;-84
2022/04/20 06:38:42;;;;;;;9.80;5.95;;;;;;;9.05;50.81;98863.38;5161136;28;20424;-84
2022/04/20 06:41:44;;;;;;;10.27;5.50;;;;;;;9.09;49.50;98850.72;5173678;28;20054;-84
2022/04/20 06:45:00;;;;;;;7.63;5.60;;;;;;;9.17;49.67;98845.56;5174570;28;20519;-84
2022/04/20 06:48:05;;;;;;;10.18;6.47;;;;;;;8.79;50.92;98844.53;5163670;28;20065;-84
2022/04/20 06:51:25;;;;;;;9.25;6.03;;;;;;;8.36;51.37;98829.78;5172338;28;20054;-85
2022/04/20 07:00:54;;;;;;;9.35;5.50;;;;;;;9.12;48.64;98842.50;5182944;28;20569;-84
2022/04/20 07:04:05;;;;;;;8.23;5.13;;;;;;;9.44;48.97;98850.19;5187601;28;20081;-85
2022/04/20 07:07:31;;;;;;;5.88;5.00;;;;;;;9.82;48.34;98851.09;5177472;28;20046;-84
2022/04/20 07:10:59;;;;;;;7.82;5.32;;;;;;;9.71;47.31;98851.25;5166326;28;20109;-84
2022/04/20 07:13:50;;;;;;;8.55;5.13;;;;;;;10.39;45.95;98843.97;5175154;28;20085;-84
2022/04/20 07:16:40;;;;;;;9.57;5.30;;;;;;;10.56;46.43;98839.69;5172255;28;20072;-85
2022/04/20 07:19:51;;;;;;;8.55;4.80;;;;;;;10.60;45.25;98835.78;5177912;28;20488;-85
2022/04/20 07:23:02;;;;;;;7.63;4.97;;;;;;;11.40;43.53;98822.66;5176372;28;20095;-85
2022/04/20 07:25:57;;;;;;;10.73;4.50;;;;;;;11.50;42.91;98844.66;5170580;28;20157;-87
2022/04/20 07:29:07;;;;;;;7.57;4.65;;;;;;;11.95;42.98;98833.03;5180547;28;20054;-85
2022/04/20 07:32:14;;;;;;;8.18;5.13;;;;;;;11.62;42.00;98822.19;5173622;28;20046;-86
2022/04/20 07:35:31;;;;;;;9.98;4.47;;;;;;;12.97;41.16;98845.44;5169435;28;20140;-87
2022/04/20 07:38:49;;;;;;;8.43;4.60;;;;;;;13.78;39.37;98841.25;5182873;28;20054;-86
2022/04/20 07:41:59;;;;;;;7.85;4.25;;;;;;;13.82;38.52;98845.22;5178022;28;20050;-87
2022/04/20 07:45:01;;;;;;;5.40;3.92;;;;;;;13.14;38.99;98815.22;5172160;28;20050;-86
2022/04/20 07:48:08;;;;;;;4.35;3.20;;;;;;;14.93;36.05;98850.59;5158273;28;20501;-87
2022/04/20 07:51:04;;;;;;;6.38;3.70;;;;;;;15.45;35.35;98854.41;5166552;28;20050;-86
2022/04/20 07:54:17;;;;;;;7.38;4.03;;;;;;;14.76;34.94;98855.16;5190461;28;20425;-86
2022/04/20 07:57:37;;;;;;;4.68;3.55;;;;;;;14.66;36.11;98861.72;5180773;28;20056;-86
2022/04/20 08:00:33;;;;;;;3.50;3.20;;;;;;;14.45;35.83;98852.41;5152219;28;20583;-87
2022/04/20 08:03:57;;;;;;;5.93;3.50;;;;;;;16.35;32.60;98857.13;5179954;28;20451;-86
2022/04/20 08:07:11;;;;;;;4.95;3.58;;;;;;;15.41;33.80;98842.44;5171332;28;20045;-86
2022/04/20 08:10:07;;;;;;;5.80;3.45;;;;;;;15.33;34.58;98840.66;5200837;28;20076;-86
2022/04/20 08:12:57;;;;;;;5.18;3.50;;;;;;;14.95;36.29;98861.91;5164300;28;20061;-85
2022/04/20 08:15:51;;;;;;;7.13;3.60;;;;;;;16.97;34.01;98849.72;5167551;28;20133;-86
2022/04/20 08:18:41;;;;;;;4.00;3.08;;;;;;;17.43;31.39;98835.97;5188628;28;20495;-86
2022/04/20 08:22:04;;;;;;;6.07;3.15;;;;;;;16.88;33.06;98828.38;5180737;28;20060;-87
2022/04/20 08:24:54;;;;;;;9.75;3.67;;;;;;;17.13;32.81;98862.88;5180570;28;20050;-87
2022/04/20 08:27:46;;;;;;;4.25;3.17;;;;;;;17.98;31.74;98826.34;5187025;28;20054;-88
2022/04/20 08:30:38;;;;;;;10.38;3.20;;;;;;;17.78;31.52;98853.88;5205546;28;20427;-85
2022/04/20 08:33:28;;;;;;;8.77;3.13;;;;;;;19.19;30.52;98850.94;5176814;28;20068;-86
2022/04/20 08:36:18;;;;;;;4.00;2.78;;;;;;;18.35;30.47;98857.38;5185579;28;20049;-86
2022/04/20 08:39:09;;;;;;;4.70;3.00;;;;;;;17.17;30.34;98848.09;5181494;28;20080;-85
2022/04/20 08:42:01;;;;;;;4.32;3.00;;;;;;;17.06;30.92;98822.63;5190333;28;20115;-86
2022/04/20 08:44:51;;;;;;;5.72;2.90;;;;;;;17.04;31.50;98846.09;5185073;28;20060;-87
2022/04/20 08:47:44;;;;;;;4.90;2.88;;;;;;;16.65;32.04;98859.78;5170462;28;20139;-86
2022/04/20 08:50:35;;;;;;;6.43;2.88;;;;;;;17.56;29.71;98811.97;5169877;28;20057;-86
2022/04/20 08:53:25;;;;;;;7.00;3.53;;;;;;;17.05;29.77;98763.88;5171184;28;20139;-86
2022/04/20 08:59:25;;;;;;;5.68;2.97;;;;;;;17.55;30.91;98821.06;5150769;28;20057;-86
2022/04/20 09:02:16;;;;;;;8.50;2.97;;;;;;;17.58;29.92;98834.91;5149626;28;20081;-86
2022/04/20 09:05:08;;;;;;;7.13;3.08;;;;;;;17.97;31.50;98843.47;5181249;28;20064;-86
2022/04/20 09:08:12;;;;;;;6.15;3.10;;;;;;;16.79;31.01;98826.84;5181800;28;20100;-86
2022/04/20 09:11:02;;;;;;;4.82;3.10;;;;;;;15.82;31.34;98813.53;5177438;28;20144;-87
2022/04/20 09:13:52;;;;;;;8.57;3.35;;;;;;;16.67;30.39;98793.50;5172492;28;20172;-86
2022/04/20 09:16:46;;;;;;;6.97;3.05;;;;;;;16.50;32.89;98826.88;5169021;28;20513;-86
2022/04/20 09:19:37;;;;;;;7.85;2.88;;;;;;;14.69;31.22;98813.31;5176757;28;20432;-85
2022/04/20 09:22:32;;;;;;;6.32;3.00;;;;;;;14.62;32.13;98820.38;5149531;28;20077;-86
2022/04/20 09:25:29;;;;;;;3.63;2.75;;;;;;;17.14;30.39;98808.28;5150918;28;20053;-86
2022/04/20 09:28:21;;;;;;;7.13;3.08;;;;;;;17.23;29.02;98835.78;5186593;28;20136;-86
2022/04/20 09:31:13;;;;;;;3.72;2.70;;;;;;;17.09;29.74;98800.00;5179566;28;20121;-86
2022/04/20 09:34:03;;;;;;;7.65;3.15;;;;;;;18.21;29.85;98820.72;5168818;28;20057;-85
2022/04/20 09:36:54;;;;;;;3.05;2.38;;;;;;;18.45;29.02;98814.06;5184474;28;20057;-87
2022/04/20 09:39:46;;;;;;;5.25;2.70;;;;;;;17.35;28.84;98823.53;5165040;28;20195;-86
2022/04/20 09:42:57;;;;;;;5.93;2.80;;;;;;;17.06;29.69;98809.22;5149092;28;20057;-86
2022/04/20 09:49:21;;;;;;;5.35;2.63;;;;;;;17.06;27.05;98813.78;5148337;28;20058;-87
2022/04/20 09:52:11;;;;;;;;;;;;;;;18.15;26.54;98833.09;5149617;28;20065;-86
2022/04/20 09:55:02;;;;;;;5.80;2.40;;;;;;;18.63;26.59;98817.03;5171144;28;19922;-86
2022/04/20 09:58:07;;;;;;;5.22;2.88;;;;;;;18.01;27.20;98804.50;5169161;28;20188;-86
2022/04/20 10:00:58;;;;;;;6.35;2.63;;;;;;;18.68;27.14;98785.03;5168468;28;20053;-85
2022/04/20 10:03:53;;;;;;;4.80;2.50;;;;;;;19.25;29.07;98824.09;5169092;28;20049;-86
2022/04/20 10:06:44;;;;;;;3.67;2.38;;;;;;;18.90;25.37;98782.25;5187157;28;20049;-86
2022/04/20 10:09:34;;;;;;;9.25;2.38;;;;;;;20.31;27.85;98800.91;5175736;28;20144;-87
2022/04/20 10:12:29;;;;;;;3.70;2.50;;;;;;;19.50;27.87;98772.41;5183729;28;21541;-87
2022/04/20 10:18:29;;;;;;;3.63;2.35;;;;;;;19.38;29.68;98779.44;5167391;28;20401;-86
2022/04/20 10:21:22;;;;;;;5.18;2.50;;;;;;;19.05;27.57;98772.16;5167649;28;20072;-86
2022/04/20 10:24:15;;;;;;;3.80;2.42;;;;;;;19.47;27.67;98800.56;5183350;28;20074;-86
2022/04/20 10:27:15;;;;;;;3.38;2.53;;;;;;;18.13;28.00;98786.00;5171132;28;20480;-85
2022/04/20 10:30:14;;;;;;;4.20;2.85;;;;;;;18.31;27.59;98783.66;5182717;28;20050;-85
2022/04/20 10:33:16;;;;;;;7.40;3.03;;;;;;;18.67;26.58;98764.56;5185619;28;20446;-86
2022/04/20 10:36:12;;;;;;;6.55;2.50;;;;;;;18.47;27.02;98726.91;5171554;28;20080;-85
2022/04/20 10:39:22;;;;;;;4.82;3.10;;;;;;;18.08;28.22;98752.56;5151474;28;20057;-85
2022/04/20 10:42:23;;;;;;;3.50;2.50;;;;;;;18.08;29.98;98759.78;5183653;28;20049;-84
2022/04/20 10:45:16;;;;;;;5.40;3.20;;;;;;;17.94;28.60;98766.91;5177109;28;20053;-85
2022/04/20 10:48:14;;;;;;;8.38;3.20;;;;;;;18.24;27.87;98766.66;5188341;28;20052;-84
2022/04/20 10:51:16;;;;;;;5.05;3.17;;;;;;;18.16;27.57;98759.59;5187952;28;20500;-84
2022/04/20 10:54:28;;;;;;;7.65;2.50;;;;;;;16.85;30.85;98764.53;5204598;28;20105;-84
2022/04/20 10:57:36;;;;;;;4.90;2.80;;;;;;;17.09;28.93;98746.41;5156318;28;20414;-84
2022/04/20 11:00:32;;;;;;;4.97;2.63;;;;;;;16.56;29.82;98751.19;5186324;28;20069;-85
2022/04/20 11:03:22;;;;;;;3.65;2.47;;;;;;;17.75;28.36;98740.78;5170292;28;20068;-85
2022/04/20 11:06:13;;;;;;;6.18;2.95;;;;;;;16.13;28.01;98738.50;5165190;28;20048;-84
2022/04/20 11:09:06;;;;;;;3.63;2.70;;;;;;;17.90;29.75;98736.13;5183483;28;20064;-85
2022/04/20 11:19:04;;;;;;;5.80;3.50;;;;;;;15.52;30.11;98759.16;5182371;28;20146;-84
2022/04/20 11:22:08;;;;;;;3.45;2.78;;;;;;;16.83;29.09;98739.78;5169280;28;20547;-83
2022/04/20 11:25:06;;;;;;;3.63;2.60;;;;;;;17.52;30.31;98733.81;5190417;28;20077;-84
2022/04/20 11:28:03;;;;;;;3.03;2.72;;;;;;;15.28;31.22;98737.00;5172296;28;20053;-84
2022/04/20 11:30:54;;;;;;;6.32;3.45;;;;;;;15.36;30.94;98717.38;5171225;28;20057;-85
2022/04/20 11:33:44;;;;;;;4.47;2.78;;;;;;;16.52;31.35;98704.38;5180840;28;20046;-83
2022/04/20 11:36:43;;;;;;;2.63;2.33;;;;;;;16.79;29.72;98706.38;5189040;28;20187;-84
2022/04/20 11:39:33;;;;;;;4.38;3.05;;;;;;;16.26;29.40;98687.03;5166354;28;20188;-84
2022/04/20 11:42:24;;;;;;;5.82;2.90;;;;;;;16.25;29.97;98701.41;5143584;28;20076;-83
2022/04/20 11:45:32;;;;;;;4.32;3.20;;;;;;;16.45;31.31;98697.09;5160331;28;20105;-84
2022/04/20 11:48:23;;;;;;;6.13;3.20;;;;;;;16.55;30.73;98701.31;5171623;28;20452;-83
2022/04/20 11:51:13;;;;;;;5.10;3.50;;;;;;;17.28;29.45;98697.50;5171352;28;20060;-83
2022/04/20 11:54:03;;;;;;;3.65;2.70;;;;;;;17.96;27.31;98699.66;5187247;28;20052;-84
2022/04/20 11:57:03;;;;;;;5.63;3.30;;;;;;;16.66;29.76;98703.53;5187214;28;20084;-83
2022/04/20 11:59:53;;;;;;;3.90;3.03;;;;;;;15.64;31.13;98698.09;5165355;28;20080;-83
2022/04/20 12:02:44;;;;;;;5.70;3.72;;;;;;;16.64;30.44;98692.16;5164226;28;20056;-83
2022/04/20 12:05:41;;;;;;;4.53;3.20;;;;;;;17.64;28.76;98677.78;5181178;28;20050;-84
2022/04/20 12:08:33;;;;;;;3.75;3.00;;;;;;;17.05;28.96;98684.38;5175408;28;20049;-86
2022/04/20 12:11:23;;;;;;;7.15;3.10;;;;;;;16.62;29.90;98652.22;5171344;28;20053;-85
2022/04/20 12:14:15;;;;;;;4.38;2.80;;;;;;;16.92;28.78;98689.59;5169920;28;20057;-85
2022/04/20 12:17:16;;;;;;;4.57;2.80;;;;;;;16.40;29.40;98667.41;5184667;28;20057;-85
2022/04/20 12:20:08;;;;;;;8.10;2.85;;;;;;;15.83;30.73;98680.72;5149801;28;20062;-85
2022/04/20 12:23:06;;;;;;;3.58;2.50;;;;;;;17.12;29.18;98682.56;5149559;28;20521;-85
2022/04/20 12:25:56;;;;;;;5.75;2.83;;;;;;;16.53;30.86;98672.09;5159552;28;20439;-85
2022/04/20 12:28:47;;;;;;;4.20;2.78;;;;;;;15.50;30.25;98678.38;5151744;28;20081;-85
2022/04/20 12:31:41;;;;;;;7.28;2.58;;;;;;;16.46;30.25;98633.72;5192496;28;20056;-85
2022/04/20 12:34:32;;;;;;;6.13;2.33;;;;;;;16.18;28.44;98679.91;5185238;28;20056;-84
2022/04/20 12:37:29;;;;;;;3.40;2.60;;;;;;;16.73;29.94;98664.25;5166396;28;20049;-84
2022/04/20 12:40:24;;;;;;;5.00;2.00;;;;;;;16.45;27.64;98675.69;5172156;28;20061;-84
2022/04/20 12:43:14;;;;;;;3.78;2.65;;;;;;;16.50;28.95;98655.59;5171869;28;20173;-84
2022/04/20 12:46:14;;;;;;;4.37;2.00;;;;;;;16.33;28.97;98660.34;5178843;28;20132;-84
2022/04/20 12:49:05;;;;;;;5.25;2.15;;;;;;;16.56;29.20;98641.44;5173102;28;20413;-84
2022/04/20 12:52:15;;;;;;;4.90;2.40;;;;;;;16.72;28.86;98654.59;5158014;28;20060;-84
2022/04/20 12:55:10;;;;;;;5.65;2.80;;;;;;;16.73;29.00;98650.06;5159104;28;20135;-85
2022/04/20 13:04:51;;;;;;;4.25;2.72;;;;;;;16.88;28.42;98648.97;5165067;28;20112;-83
2022/04/20 13:07:41;;;;;;;3.58;2.42;;;;;;;17.51;28.16;98627.59;5169840;28;20052;-83
2022/04/20 13:10:35;;;;;;;3.78;2.33;;;;;;;17.18;28.27;98643.44;5180953;28;20065;-83
2022/04/20 13:13:26;;;;;;;3.78;2.88;;;;;;;17.37;28.26;98626.69;5179677;28;20478;-84
2022/04/20 13:16:21;;;;;;;5.28;2.35;;;;;;;17.01;28.33;98642.91;5211012;28;20043;-85
2022/04/20 13:19:12;;;;;;;9.23;2.63;;;;;;;17.47;27.23;98633.53;5217168;28;20050;-83
2022/04/20 13:22:03;;;;;;;7.63;2.13;;;;;;;16.72;26.65;98616.25;5212254;28;20265;-83
2022/04/20 13:28:02;;;;;;;2.58;2.30;;;;;;;17.18;27.94;98632.72;5182586;28;20045;-83
2022/04/20 13:30:52;;;;;;;3.08;2.20;;;;;;;17.27;27.38;98610.13;5174342;28;20447;-85
2022/04/20 13:33:43;;;;;;;7.00;2.38;;;;;;;17.28;26.34;98605.59;5176621;28;20064;-85
2022/04/20 13:36:34;;;;;;;3.28;1.90;;;;;;;16.15;27.90;98600.03;5163366;28;20046;-83
2022/04/20 13:39:24;;;;;;;2.75;2.13;;;;;;;14.96;29.39;98628.63;5168436;28;20046;-82
2022/04/20 13:42:15;;;;;;;5.45;2.22;;;;;;;15.97;27.63;98586.28;5179933;28;20644;-83
2022/04/20 13:45:07;;;;;;;5.15;2.40;;;;;;;15.95;28.42;98631.91;5170928;28;20052;-83
2022/04/20 13:47:57;;;;;;;2.78;1.83;;;;;;;16.62;28.34;98601.38;5188137;28;20114;-83
2022/04/20 13:50:48;;;;;;;5.50;2.10;;;;;;;16.18;29.50;98604.19;5177990;28;20096;-82
2022/04/20 13:53:38;;;;;;;2.75;2.38;;;;;;;16.56;28.55;98628.06;5182880;28;20423;-83
2022/04/20 13:56:28;;;;;;;12.50;2.40;;;;;;;16.83;27.95;98600.53;5167306;28;20057;-83
2022/04/20 13:59:19;;;;;;;3.03;2.13;;;;;;;16.73;27.02;98607.22;5167827;28;20526;-84
2022/04/20 14:02:09;;;;;;;8.88;2.60;;;;;;;16.17;29.25;98598.03;5172128;28;20115;-85
2022/04/20 14:04:59;;;;;;;3.97;2.60;;;;;;;16.41;27.97;98620.91;5189484;28;20065;-83
2022/04/20 14:07:49;;;;;;;6.32;2.80;;;;;;;16.38;27.85;98609.75;5188943;28;20057;-84
2022/04/20 14:10:40;;;;;;;4.68;2.65;;;;;;;16.90;28.55;98625.50;5185215;28;20136;-85
2022/04/20 14:13:30;;;;;;;8.07;2.83;;;;;;;17.02;27.99;98585.66;5156451;28;20077;-84
2022/04/20 14:16:24;;;;;;;4.72;2.92;;;;;;;17.12;27.98;98596.84;5172754;28;20125;-85
2022/04/20 14:19:15;;;;;;;3.03;2.72;;;;;;;16.78;27.69;98605.63;5187347;28;20459;-84
2022/04/20 14:22:07;;;;;;;3.13;2.83;;;;;;;16.78;27.38;98620.88;5189614;28;20073;-84
2022/04/20 14:34:24;;;;;;;3.08;2.65;;;;;;;16.90;26.47;98587.19;5179493;28;20076;-84
2022/04/20 14:37:17;;;;;;;7.20;2.60;;;;;;;16.59;27.30;98593.72;5172646;28;20429;-85
2022/04/20 14:40:07;;;;;;;5.72;2.72;;;;;;;16.68;27.96;98599.75;5171371;28;20768;-84
2022/04/20 14:42:58;;;;;;;4.25;2.65;;;;;;;17.59;26.14;98614.03;5171291;28;20060;-83
2022/04/20 14:45:48;;;;;;;5.38;3.08;;;;;;;16.93;27.62;98591.34;5172438;28;20050;-85